sensor_id;sensor_type;location;lat;lon;timestamp;temperature;humidity
10443;DHT22;5269;51.146;16.986;2022-09-03T00:01:49;14.10;99.90
10443;DHT22;5269;51.146;16.986;2022-09-03T00:04:31;14.20;99.90
10443;DHT22;5269;51.146;16.986;2022-09-03T00:10:42;14.10;99.90
10443;DHT22;5269;51.146;16.986;2022-09-03T00:13:28;14.10;99.90
10443;DHT22;5269;51.146;16.986;2022-09-03T00:15:57;14.00;99.90
10443;DHT22;5269;51.146;16.986;2022-09-03T00:18:31;13.90;99.90
10443;DHT22;5269;51.146;16.986;2022-09-03T00:21:03;13.90;99.90
10443;DHT22;5269;51.146;16.986;2022-09-03T00:23:41;13.80;99.90
10443;DHT22;5269;51.146;16.986;2022-09-03T00:26:27;13.70;99.90
10443;DHT22;5269;51.146;16.986;2022-09-03T00:29:00;13.50;99.90
10443;DHT22;5269;51.146;16.986;2022-09-03T00:31:33;13.50;99.90
10443;DHT22;5269;51.146;16.986;2022-09-03T00:34:31;13.50;99.90
10443;DHT22;5269;51.146;16.986;2022-09-03T00:37:09;13.50;99.90
10443;DHT22;5269;51.146;16.986;2022-09-03T00:39:40;13.40;99.90
10443;DHT22;5269;51.146;16.986;2022-09-03T00:42:25;13.30;99.90
10443;DHT22;5269;51.146;16.986;2022-09-03T00:48:06;13.20;1.00
10443;DHT22;5269;51.146;16.986;2022-09-03T00:50:45;13.20;1.00
10443;DHT22;5269;51.146;16.986;2022-09-03T00:53:25;13.20;1.00
10443;DHT22;5269;51.146;16.986;2022-09-03T00:56:01;13.20;99.90
10443;DHT22;5269;51.146;16.986;2022-09-03T00:58:49;13.20;99.90
10443;DHT22;5269;51.146;16.986;2022-09-03T01:01:35;13.10;1.00
10443;DHT22;5269;51.146;16.986;2022-09-03T01:04:11;13.00;1.00
10443;DHT22;5269;51.146;16.986;2022-09-03T01:06:52;13.10;1.00
10443;DHT22;5269;51.146;16.986;2022-09-03T01:09:33;13.00;1.00
10443;DHT22;5269;51.146;16.986;2022-09-03T01:12:07;12.90;1.00
10443;DHT22;5269;51.146;16.986;2022-09-03T01:14:51;12.90;1.00
10443;DHT22;5269;51.146;16.986;2022-09-03T01:17:30;12.80;1.00
10443;DHT22;5269;51.146;16.986;2022-09-03T01:20:23;12.80;1.00
10443;DHT22;5269;51.146;16.986;2022-09-03T01:26:30;12.60;1.00
10443;DHT22;5269;51.146;16.986;2022-09-03T01:29:09;12.60;1.00
10443;DHT22;5269;51.146;16.986;2022-09-03T01:31:43;12.60;1.00
10443;DHT22;5269;51.146;16.986;2022-09-03T01:34:21;12.50;1.00
10443;DHT22;5269;51.146;16.986;2022-09-03T01:37:00;12.40;1.00
10443;DHT22;5269;51.146;16.986;2022-09-03T01:39:37;12.40;1.00
10443;DHT22;5269;51.146;16.986;2022-09-03T01:42:14;12.40;1.00
10443;DHT22;5269;51.146;16.986;2022-09-03T01:48:00;12.30;1.00
10443;DHT22;5269;51.146;16.986;2022-09-03T01:50:38;12.30;1.00
10443;DHT22;5269;51.146;16.986;2022-09-03T01:53:16;12.10;1.00
10443;DHT22;5269;51.146;16.986;2022-09-03T01:56:00;12.10;1.00
10443;DHT22;5269;51.146;16.986;2022-09-03T01:58:34;12.10;1.00
10443;DHT22;5269;51.146;16.986;2022-09-03T02:01:10;12.00;1.00
10443;DHT22;5269;51.146;16.986;2022-09-03T02:03:48;11.90;1.00
10443;DHT22;5269;51.146;16.986;2022-09-03T02:06:15;11.90;20.50
10443;DHT22;5269;51.146;16.986;2022-09-03T02:08:45;11.80;93.10
10443;DHT22;5269;51.146;16.986;2022-09-03T02:11:13;11.80;78.40
10443;DHT22;5269;51.146;16.986;2022-09-03T02:13:42;11.70;97.40
10443;DHT22;5269;51.146;16.986;2022-09-03T02:16:14;11.70;99.90
10443;DHT22;5269;51.146;16.986;2022-09-03T02:18:43;11.60;99.90
10443;DHT22;5269;51.146;16.986;2022-09-03T02:21:14;11.60;99.90
10443;DHT22;5269;51.146;16.986;2022-09-03T02:23:47;11.50;99.90
10443;DHT22;5269;51.146;16.986;2022-09-03T02:26:20;11.40;99.90
10443;DHT22;5269;51.146;16.986;2022-09-03T02:28:50;11.40;99.90
10443;DHT22;5269;51.146;16.986;2022-09-03T02:31:20;11.30;99.90
10443;DHT22;5269;51.146;16.986;2022-09-03T02:33:50;11.30;99.90
10443;DHT22;5269;51.146;16.986;2022-09-03T02:36:20;11.30;1.00
10443;DHT22;5269;51.146;16.986;2022-09-03T02:38:50;11.20;99.90
10443;DHT22;5269;51.146;16.986;2022-09-03T02:41:17;11.20;1.00
10443;DHT22;5269;51.146;16.986;2022-09-03T02:43:48;11.20;1.00
10443;DHT22;5269;51.146;16.986;2022-09-03T02:46:20;11.20;1.00
10443;DHT22;5269;51.146;16.986;2022-09-03T02:48:50;11.10;1.00
10443;DHT22;5269;51.146;16.986;2022-09-03T02:51:17;11.10;1.00
10443;DHT22;5269;51.146;16.986;2022-09-03T02:53:44;11.10;1.00
10443;DHT22;5269;51.146;16.986;2022-09-03T02:56:14;11.10;1.00
10443;DHT22;5269;51.146;16.986;2022-09-03T02:58:41;11.10;1.00
10443;DHT22;5269;51.146;16.986;2022-09-03T03:01:16;11.00;1.00
10443;DHT22;5269;51.146;16.986;2022-09-03T03:03:45;11.00;1.00
10443;DHT22;5269;51.146;16.986;2022-09-03T03:06:12;11.00;1.00
10443;DHT22;5269;51.146;16.986;2022-09-03T03:08:39;10.90;1.00
10443;DHT22;5269;51.146;16.986;2022-09-03T03:11:06;10.90;1.00
10443;DHT22;5269;51.146;16.986;2022-09-03T03:13:37;10.90;1.00
10443;DHT22;5269;51.146;16.986;2022-09-03T03:16:06;10.80;1.00
10443;DHT22;5269;51.146;16.986;2022-09-03T03:18:33;10.80;1.00
10443;DHT22;5269;51.146;16.986;2022-09-03T03:21:10;10.70;1.00
10443;DHT22;5269;51.146;16.986;2022-09-03T03:23:40;10.70;1.00
10443;DHT22;5269;51.146;16.986;2022-09-03T03:26:10;10.60;1.00
10443;DHT22;5269;51.146;16.986;2022-09-03T03:32:00;10.60;99.90
10443;DHT22;5269;51.146;16.986;2022-09-03T03:34:27;10.50;99.90
10443;DHT22;5269;51.146;16.986;2022-09-03T03:37:00;10.50;99.90
10443;DHT22;5269;51.146;16.986;2022-09-03T03:39:30;10.50;1.00
10443;DHT22;5269;51.146;16.986;2022-09-03T03:42:03;10.50;1.00
10443;DHT22;5269;51.146;16.986;2022-09-03T03:44:30;10.50;1.00
10443;DHT22;5269;51.146;16.986;2022-09-03T03:47:01;10.40;1.00
10443;DHT22;5269;51.146;16.986;2022-09-03T03:49:32;10.40;99.90
10443;DHT22;5269;51.146;16.986;2022-09-03T03:52:00;10.30;99.90
10443;DHT22;5269;51.146;16.986;2022-09-03T03:54:29;10.30;1.00
10443;DHT22;5269;51.146;16.986;2022-09-03T03:56:58;10.30;99.90
10443;DHT22;5269;51.146;16.986;2022-09-03T03:59:27;10.30;99.90
10443;DHT22;5269;51.146;16.986;2022-09-03T04:05:16;10.10;1.00
10443;DHT22;5269;51.146;16.986;2022-09-03T04:07:44;10.10;99.90
10443;DHT22;5269;51.146;16.986;2022-09-03T04:10:11;10.10;99.90
10443;DHT22;5269;51.146;16.986;2022-09-03T04:12:40;10.10;1.00
10443;DHT22;5269;51.146;16.986;2022-09-03T04:15:08;10.10;1.00
10443;DHT22;5269;51.146;16.986;2022-09-03T04:17:40;10.10;1.00
10443;DHT22;5269;51.146;16.986;2022-09-03T04:20:11;10.10;99.90
10443;DHT22;5269;51.146;16.986;2022-09-03T04:22:38;10.00;1.00
10443;DHT22;5269;51.146;16.986;2022-09-03T04:25:10;10.00;29.60
10443;DHT22;5269;51.146;16.986;2022-09-03T04:27:43;10.10;1.00
10443;DHT22;5269;51.146;16.986;2022-09-03T04:30:10;10.00;99.90
10443;DHT22;5269;51.146;16.986;2022-09-03T04:32:37;10.10;99.90
10443;DHT22;5269;51.146;16.986;2022-09-03T04:35:24;10.10;1.00
10443;DHT22;5269;51.146;16.986;2022-09-03T04:38:00;10.10;99.90
10443;DHT22;5269;51.146;16.986;2022-09-03T04:40:30;10.10;99.90
10443;DHT22;5269;51.146;16.986;2022-09-03T04:42:57;10.20;99.90
10443;DHT22;5269;51.146;16.986;2022-09-03T04:45:25;10.30;1.00
10443;DHT22;5269;51.146;16.986;2022-09-03T04:48:00;10.40;1.00
10443;DHT22;5269;51.146;16.986;2022-09-03T04:50:28;10.50;99.90
10443;DHT22;5269;51.146;16.986;2022-09-03T04:52:59;10.60;1.00
10443;DHT22;5269;51.146;16.986;2022-09-03T04:55:26;10.70;99.90
10443;DHT22;5269;51.146;16.986;2022-09-03T04:57:58;10.70;83.20
10443;DHT22;5269;51.146;16.986;2022-09-03T05:00:30;10.60;99.90
10443;DHT22;5269;51.146;16.986;2022-09-03T05:02:59;10.60;99.90
10443;DHT22;5269;51.146;16.986;2022-09-03T05:05:26;10.70;99.90
10443;DHT22;5269;51.146;16.986;2022-09-03T05:07:57;10.80;99.90
10443;DHT22;5269;51.146;16.986;2022-09-03T05:13:50;10.80;1.00
10443;DHT22;5269;51.146;16.986;2022-09-03T05:19:40;11.00;1.00
10443;DHT22;5269;51.146;16.986;2022-09-03T05:22:06;11.10;99.90
10443;DHT22;5269;51.146;16.986;2022-09-03T05:27:56;11.40;1.00
10443;DHT22;5269;51.146;16.986;2022-09-03T05:30:24;11.50;1.00
10443;DHT22;5269;51.146;16.986;2022-09-03T05:32:51;11.60;99.90
10443;DHT22;5269;51.146;16.986;2022-09-03T05:35:18;11.70;99.90
10443;DHT22;5269;51.146;16.986;2022-09-03T05:37:45;11.90;99.90
10443;DHT22;5269;51.146;16.986;2022-09-03T05:40:14;12.00;99.90
10443;DHT22;5269;51.146;16.986;2022-09-03T05:42:41;12.10;5.90
10443;DHT22;5269;51.146;16.986;2022-09-03T05:45:09;12.30;1.00
10443;DHT22;5269;51.146;16.986;2022-09-03T05:47:41;12.50;1.00
10443;DHT22;5269;51.146;16.986;2022-09-03T05:50:08;12.50;1.00
10443;DHT22;5269;51.146;16.986;2022-09-03T05:52:35;12.60;1.00
10443;DHT22;5269;51.146;16.986;2022-09-03T05:55:03;12.60;1.00
10443;DHT22;5269;51.146;16.986;2022-09-03T06:04:19;12.50;1.00
10443;DHT22;5269;51.146;16.986;2022-09-03T06:06:46;12.50;1.00
10443;DHT22;5269;51.146;16.986;2022-09-03T06:12:36;12.90;99.90
10443;DHT22;5269;51.146;16.986;2022-09-03T06:15:04;13.00;99.90
10443;DHT22;5269;51.146;16.986;2022-09-03T06:17:31;13.10;99.90
10443;DHT22;5269;51.146;16.986;2022-09-03T06:19:59;13.30;99.90
10443;DHT22;5269;51.146;16.986;2022-09-03T06:22:26;13.40;99.90
10443;DHT22;5269;51.146;16.986;2022-09-03T06:24:58;13.60;99.90
10443;DHT22;5269;51.146;16.986;2022-09-03T06:30:48;13.70;99.90
10443;DHT22;5269;51.146;16.986;2022-09-03T06:33:15;13.80;99.90
10443;DHT22;5269;51.146;16.986;2022-09-03T06:35:44;14.00;99.90
10443;DHT22;5269;51.146;16.986;2022-09-03T06:41:40;14.10;63.50
10443;DHT22;5269;51.146;16.986;2022-09-03T06:44:11;14.20;1.00
10443;DHT22;5269;51.146;16.986;2022-09-03T06:46:43;14.20;1.00
10443;DHT22;5269;51.146;16.986;2022-09-03T06:52:43;14.60;1.00
10443;DHT22;5269;51.146;16.986;2022-09-03T06:55:18;14.80;1.00
10443;DHT22;5269;51.146;16.986;2022-09-03T06:57:54;15.10;1.00
10443;DHT22;5269;51.146;16.986;2022-09-03T07:00:22;15.10;1.00
10443;DHT22;5269;51.146;16.986;2022-09-03T07:02:59;15.10;1.00
10443;DHT22;5269;51.146;16.986;2022-09-03T07:05:35;15.20;1.00
10443;DHT22;5269;51.146;16.986;2022-09-03T07:08:03;15.30;1.00
10443;DHT22;5269;51.146;16.986;2022-09-03T07:10:30;15.30;1.00
10443;DHT22;5269;51.146;16.986;2022-09-03T07:13:09;15.50;1.00
10443;DHT22;5269;51.146;16.986;2022-09-03T07:15:39;15.60;1.00
10443;DHT22;5269;51.146;16.986;2022-09-03T07:18:08;15.70;1.00
10443;DHT22;5269;51.146;16.986;2022-09-03T07:20:35;16.00;1.00
10443;DHT22;5269;51.146;16.986;2022-09-03T07:23:03;16.10;1.00
10443;DHT22;5269;51.146;16.986;2022-09-03T07:25:30;16.20;1.00
10443;DHT22;5269;51.146;16.986;2022-09-03T07:27:57;16.30;1.00
10443;DHT22;5269;51.146;16.986;2022-09-03T07:33:46;16.20;1.00
10443;DHT22;5269;51.146;16.986;2022-09-03T07:42:59;16.40;1.00
10443;DHT22;5269;51.146;16.986;2022-09-03T07:45:28;16.50;1.00
10443;DHT22;5269;51.146;16.986;2022-09-03T07:47:54;16.50;1.00
10443;DHT22;5269;51.146;16.986;2022-09-03T07:50:21;16.60;1.00
10443;DHT22;5269;51.146;16.986;2022-09-03T07:56:10;16.70;1.00
10443;DHT22;5269;51.146;16.986;2022-09-03T07:58:39;16.90;1.00
10443;DHT22;5269;51.146;16.986;2022-09-03T08:01:08;17.00;1.00
10443;DHT22;5269;51.146;16.986;2022-09-03T08:03:35;17.10;1.00
10443;DHT22;5269;51.146;16.986;2022-09-03T08:06:04;17.10;1.00
10443;DHT22;5269;51.146;16.986;2022-09-03T08:08:32;17.20;1.00
10443;DHT22;5269;51.146;16.986;2022-09-03T08:11:04;17.30;1.00
10443;DHT22;5269;51.146;16.986;2022-09-03T08:13:36;17.40;1.00
10443;DHT22;5269;51.146;16.986;2022-09-03T08:16:05;17.40;1.00
10443;DHT22;5269;51.146;16.986;2022-09-03T08:18:33;17.40;1.00
10443;DHT22;5269;51.146;16.986;2022-09-03T08:21:03;17.40;1.00
10443;DHT22;5269;51.146;16.986;2022-09-03T08:23:31;17.40;1.00
10443;DHT22;5269;51.146;16.986;2022-09-03T08:25:59;17.60;1.00
10443;DHT22;5269;51.146;16.986;2022-09-03T08:28:26;17.90;1.00
10443;DHT22;5269;51.146;16.986;2022-09-03T08:30:53;17.90;1.00
10443;DHT22;5269;51.146;16.986;2022-09-03T08:33:23;18.00;1.00
10443;DHT22;5269;51.146;16.986;2022-09-03T08:36:04;17.70;1.00
10443;DHT22;5269;51.146;16.986;2022-09-03T08:44:21;18.00;1.00
10443;DHT22;5269;51.146;16.986;2022-09-03T09:07:41;19.20;1.00
10443;DHT22;5269;51.146;16.986;2022-09-03T09:10:17;19.20;1.00
10443;DHT22;5269;51.146;16.986;2022-09-03T09:13:00;19.50;1.00
10443;DHT22;5269;51.146;16.986;2022-09-03T09:15:42;19.70;1.00
10443;DHT22;5269;51.146;16.986;2022-09-03T09:18:24;19.80;1.00
10443;DHT22;5269;51.146;16.986;2022-09-03T09:21:17;19.70;1.00
10443;DHT22;5269;51.146;16.986;2022-09-03T09:23:50;19.70;1.00
10443;DHT22;5269;51.146;16.986;2022-09-03T09:26:20;19.80;1.00
10443;DHT22;5269;51.146;16.986;2022-09-03T09:28:54;19.90;1.00
10443;DHT22;5269;51.146;16.986;2022-09-03T09:31:24;20.00;1.00
10443;DHT22;5269;51.146;16.986;2022-09-03T09:33:51;20.20;1.00
10443;DHT22;5269;51.146;16.986;2022-09-03T09:39:59;20.30;1.00
10443;DHT22;5269;51.146;16.986;2022-09-03T09:42:40;20.30;1.00
10443;DHT22;5269;51.146;16.986;2022-09-03T09:45:14;20.40;1.00
10443;DHT22;5269;51.146;16.986;2022-09-03T09:47:41;20.30;1.00
10443;DHT22;5269;51.146;16.986;2022-09-03T09:50:19;20.40;1.00
10443;DHT22;5269;51.146;16.986;2022-09-03T09:55:32;20.60;1.00
10443;DHT22;5269;51.146;16.986;2022-09-03T09:58:33;20.70;1.00
10443;DHT22;5269;51.146;16.986;2022-09-03T10:04:12;20.70;1.00
10443;DHT22;5269;51.146;16.986;2022-09-03T10:10:16;20.60;1.00
10443;DHT22;5269;51.146;16.986;2022-09-03T10:13:03;20.80;1.00
10443;DHT22;5269;51.146;16.986;2022-09-03T10:16:20;20.50;1.00
10443;DHT22;5269;51.146;16.986;2022-09-03T10:19:13;20.70;1.00
10443;DHT22;5269;51.146;16.986;2022-09-03T10:25:16;21.10;1.00
10443;DHT22;5269;51.146;16.986;2022-09-03T10:33:50;21.50;1.00
10443;DHT22;5269;51.146;16.986;2022-09-03T10:36:31;21.60;1.00
10443;DHT22;5269;51.146;16.986;2022-09-03T10:44:53;21.80;1.00
10443;DHT22;5269;51.146;16.986;2022-09-03T10:48:23;21.70;1.00
10443;DHT22;5269;51.146;16.986;2022-09-03T10:51:04;21.20;1.00
10443;DHT22;5269;51.146;16.986;2022-09-03T10:53:54;21.00;1.00
10443;DHT22;5269;51.146;16.986;2022-09-03T10:56:49;21.20;1.00
10443;DHT22;5269;51.146;16.986;2022-09-03T10:59:42;21.40;1.00
10443;DHT22;5269;51.146;16.986;2022-09-03T11:02:45;21.60;1.00
10443;DHT22;5269;51.146;16.986;2022-09-03T11:05:22;21.50;1.00
10443;DHT22;5269;51.146;16.986;2022-09-03T11:08:02;21.50;1.00
10443;DHT22;5269;51.146;16.986;2022-09-03T11:10:36;21.70;1.00
10443;DHT22;5269;51.146;16.986;2022-09-03T11:13:10;21.80;1.00
10443;DHT22;5269;51.146;16.986;2022-09-03T11:15:41;22.00;1.00
10443;DHT22;5269;51.146;16.986;2022-09-03T11:18:15;21.90;1.00
10443;DHT22;5269;51.146;16.986;2022-09-03T11:20:47;22.10;1.00
10443;DHT22;5269;51.146;16.986;2022-09-03T11:23:21;21.90;1.00
10443;DHT22;5269;51.146;16.986;2022-09-03T11:26:17;22.10;1.00
10443;DHT22;5269;51.146;16.986;2022-09-03T11:28:53;22.00;1.00
10443;DHT22;5269;51.146;16.986;2022-09-03T11:31:29;21.80;1.00
10443;DHT22;5269;51.146;16.986;2022-09-03T11:34:00;21.90;1.00
10443;DHT22;5269;51.146;16.986;2022-09-03T11:36:37;21.90;1.00
10443;DHT22;5269;51.146;16.986;2022-09-03T11:39:19;21.90;1.00
10443;DHT22;5269;51.146;16.986;2022-09-03T11:41:58;21.70;1.00
10443;DHT22;5269;51.146;16.986;2022-09-03T11:44:40;21.40;1.00
10443;DHT22;5269;51.146;16.986;2022-09-03T11:47:21;21.20;1.00
10443;DHT22;5269;51.146;16.986;2022-09-03T11:49:50;21.30;1.00
10443;DHT22;5269;51.146;16.986;2022-09-03T11:52:29;21.60;1.00
10443;DHT22;5269;51.146;16.986;2022-09-03T11:54:57;21.90;1.00
10443;DHT22;5269;51.146;16.986;2022-09-03T11:57:29;22.00;99.90
10443;DHT22;5269;51.146;16.986;2022-09-03T12:00:11;21.90;99.90
10443;DHT22;5269;51.146;16.986;2022-09-03T12:02:43;21.80;99.90
10443;DHT22;5269;51.146;16.986;2022-09-03T12:05:31;21.70;1.00
10443;DHT22;5269;51.146;16.986;2022-09-03T12:11:23;21.80;1.00
10443;DHT22;5269;51.146;16.986;2022-09-03T12:14:01;22.00;1.00
10443;DHT22;5269;51.146;16.986;2022-09-03T12:16:50;22.20;1.00
10443;DHT22;5269;51.146;16.986;2022-09-03T12:19:27;22.50;99.90
10443;DHT22;5269;51.146;16.986;2022-09-03T12:21:57;22.50;99.90
10443;DHT22;5269;51.146;16.986;2022-09-03T12:24:30;22.40;99.90
10443;DHT22;5269;51.146;16.986;2022-09-03T12:27:02;22.50;99.90
10443;DHT22;5269;51.146;16.986;2022-09-03T12:29:30;22.70;99.90
10443;DHT22;5269;51.146;16.986;2022-09-03T12:32:06;22.70;99.90
10443;DHT22;5269;51.146;16.986;2022-09-03T12:34:33;22.70;99.90
10443;DHT22;5269;51.146;16.986;2022-09-03T12:37:18;22.50;99.90
10443;DHT22;5269;51.146;16.986;2022-09-03T12:40:14;22.50;99.90
10443;DHT22;5269;51.146;16.986;2022-09-03T12:43:25;22.30;99.90
10443;DHT22;5269;51.146;16.986;2022-09-03T12:45:57;22.20;99.90
10443;DHT22;5269;51.146;16.986;2022-09-03T12:51:41;22.00;99.90
10443;DHT22;5269;51.146;16.986;2022-09-03T12:54:15;22.00;99.90
10443;DHT22;5269;51.146;16.986;2022-09-03T12:56:48;21.90;99.90
10443;DHT22;5269;51.146;16.986;2022-09-03T12:59:20;21.80;99.90
10443;DHT22;5269;51.146;16.986;2022-09-03T13:01:51;22.10;99.90
10443;DHT22;5269;51.146;16.986;2022-09-03T13:04:23;22.30;99.90
10443;DHT22;5269;51.146;16.986;2022-09-03T13:07:03;22.60;99.90
10443;DHT22;5269;51.146;16.986;2022-09-03T13:09:51;22.70;99.90
10443;DHT22;5269;51.146;16.986;2022-09-03T13:12:44;22.60;99.90
10443;DHT22;5269;51.146;16.986;2022-09-03T13:15:41;22.60;1.00
10443;DHT22;5269;51.146;16.986;2022-09-03T13:18:24;22.30;99.90
10443;DHT22;5269;51.146;16.986;2022-09-03T13:21:27;22.10;99.90
10443;DHT22;5269;51.146;16.986;2022-09-03T13:27:22;21.90;99.90
10443;DHT22;5269;51.146;16.986;2022-09-03T13:33:33;22.20;99.90
10443;DHT22;5269;51.146;16.986;2022-09-03T13:39:51;22.20;99.90
10443;DHT22;5269;51.146;16.986;2022-09-03T13:46:05;22.40;99.90
10443;DHT22;5269;51.146;16.986;2022-09-03T13:54:23;22.50;99.90
10443;DHT22;5269;51.146;16.986;2022-09-03T14:06:04;21.70;99.90
10443;DHT22;5269;51.146;16.986;2022-09-03T14:55:54;22.80;99.90
10443;DHT22;5269;51.146;16.986;2022-09-03T14:59:12;22.90;99.90
10443;DHT22;5269;51.146;16.986;2022-09-03T16:16:18;22.40;99.90
10443;DHT22;5269;51.146;16.986;2022-09-03T16:22:31;22.50;99.90
10443;DHT22;5269;51.146;16.986;2022-09-03T16:25:15;22.30;99.90
10443;DHT22;5269;51.146;16.986;2022-09-03T16:28:03;22.20;1.00
10443;DHT22;5269;51.146;16.986;2022-09-03T16:30:51;22.10;1.00
10443;DHT22;5269;51.146;16.986;2022-09-03T16:34:14;21.90;1.00
10443;DHT22;5269;51.146;16.986;2022-09-03T16:36:35;22.00;1.00
10443;DHT22;5269;51.146;16.986;2022-09-03T16:39:23;21.90;1.00
10443;DHT22;5269;51.146;16.986;2022-09-03T16:42:00;21.90;1.00
10443;DHT22;5269;51.146;16.986;2022-09-03T16:44:38;21.70;1.00
10443;DHT22;5269;51.146;16.986;2022-09-03T16:47:58;21.80;1.00
10443;DHT22;5269;51.146;16.986;2022-09-03T16:50:27;21.70;1.00
10443;DHT22;5269;51.146;16.986;2022-09-03T16:53:05;21.70;1.00
10443;DHT22;5269;51.146;16.986;2022-09-03T16:56:09;21.30;1.00
10443;DHT22;5269;51.146;16.986;2022-09-03T16:58:58;20.90;1.00
10443;DHT22;5269;51.146;16.986;2022-09-03T17:01:40;20.60;1.00
10443;DHT22;5269;51.146;16.986;2022-09-03T17:04:34;20.30;1.00
10443;DHT22;5269;51.146;16.986;2022-09-03T17:10:58;19.80;1.00
10443;DHT22;5269;51.146;16.986;2022-09-03T17:21:37;19.40;1.00
10443;DHT22;5269;51.146;16.986;2022-09-03T17:24:33;19.20;1.00
10443;DHT22;5269;51.146;16.986;2022-09-03T17:27:15;19.00;1.00
10443;DHT22;5269;51.146;16.986;2022-09-03T17:30:46;18.90;1.00
10443;DHT22;5269;51.146;16.986;2022-09-03T17:36:14;18.50;1.00
10443;DHT22;5269;51.146;16.986;2022-09-03T17:42:04;18.30;1.00
10443;DHT22;5269;51.146;16.986;2022-09-03T17:44:49;18.10;1.00
10443;DHT22;5269;51.146;16.986;2022-09-03T17:50:23;17.80;99.90
10443;DHT22;5269;51.146;16.986;2022-09-03T17:52:53;17.90;79.60
10443;DHT22;5269;51.146;16.986;2022-09-03T17:55:31;17.80;72.90
10443;DHT22;5269;51.146;16.986;2022-09-03T17:58:07;17.70;99.90
10443;DHT22;5269;51.146;16.986;2022-09-03T18:00:41;17.60;99.90
10443;DHT22;5269;51.146;16.986;2022-09-03T18:03:15;17.60;99.90
10443;DHT22;5269;51.146;16.986;2022-09-03T18:05:56;17.60;99.90
10443;DHT22;5269;51.146;16.986;2022-09-03T18:08:45;17.50;99.90
10443;DHT22;5269;51.146;16.986;2022-09-03T18:11:22;17.40;99.90
10443;DHT22;5269;51.146;16.986;2022-09-03T18:14:10;17.40;99.90
10443;DHT22;5269;51.146;16.986;2022-09-03T18:16:51;17.20;99.90
10443;DHT22;5269;51.146;16.986;2022-09-03T18:19:35;17.00;99.90
10443;DHT22;5269;51.146;16.986;2022-09-03T18:22:23;17.00;1.00
10443;DHT22;5269;51.146;16.986;2022-09-03T18:25:10;16.80;1.00
10443;DHT22;5269;51.146;16.986;2022-09-03T18:28:04;16.80;1.00
10443;DHT22;5269;51.146;16.986;2022-09-03T18:30:53;16.70;1.00
10443;DHT22;5269;51.146;16.986;2022-09-03T18:33:52;16.50;1.00
10443;DHT22;5269;51.146;16.986;2022-09-03T18:36:42;16.50;1.00
10443;DHT22;5269;51.146;16.986;2022-09-03T18:39:30;16.40;1.00
10443;DHT22;5269;51.146;16.986;2022-09-03T18:42:22;16.30;1.00
10443;DHT22;5269;51.146;16.986;2022-09-03T18:45:23;16.20;1.00
10443;DHT22;5269;51.146;16.986;2022-09-03T18:48:19;16.10;99.90
10443;DHT22;5269;51.146;16.986;2022-09-03T18:58:02;16.00;99.90
10443;DHT22;5269;51.146;16.986;2022-09-03T19:00:53;16.00;99.90
10443;DHT22;5269;51.146;16.986;2022-09-03T19:03:51;16.00;99.90
10443;DHT22;5269;51.146;16.986;2022-09-03T19:10:06;15.90;99.90
10443;DHT22;5269;51.146;16.986;2022-09-03T19:16:20;15.60;99.90
10443;DHT22;5269;51.146;16.986;2022-09-03T19:22:31;15.30;1.00
10443;DHT22;5269;51.146;16.986;2022-09-03T19:25:53;15.30;8.00
10443;DHT22;5269;51.146;16.986;2022-09-03T19:32:16;15.10;99.90
10443;DHT22;5269;51.146;16.986;2022-09-03T19:38:34;14.90;1.00
10443;DHT22;5269;51.146;16.986;2022-09-03T19:41:35;14.90;1.00
10443;DHT22;5269;51.146;16.986;2022-09-03T19:44:31;14.80;1.00
10443;DHT22;5269;51.146;16.986;2022-09-03T19:47:25;14.80;1.00
10443;DHT22;5269;51.146;16.986;2022-09-03T19:50:17;14.70;1.00
10443;DHT22;5269;51.146;16.986;2022-09-03T19:53:09;14.70;1.00
10443;DHT22;5269;51.146;16.986;2022-09-03T19:56:12;14.60;99.90
10443;DHT22;5269;51.146;16.986;2022-09-03T19:59:06;14.60;99.90
10443;DHT22;5269;51.146;16.986;2022-09-03T20:01:54;14.60;99.90
10443;DHT22;5269;51.146;16.986;2022-09-03T20:04:42;14.50;1.00
10443;DHT22;5269;51.146;16.986;2022-09-03T20:17:51;14.40;99.90
10443;DHT22;5269;51.146;16.986;2022-09-03T20:24:03;14.30;1.00
10443;DHT22;5269;51.146;16.986;2022-09-03T20:26:45;14.30;1.00
10443;DHT22;5269;51.146;16.986;2022-09-03T20:29:53;14.30;1.00
10443;DHT22;5269;51.146;16.986;2022-09-03T20:32:59;14.20;99.90
10443;DHT22;5269;51.146;16.986;2022-09-03T20:41:21;14.20;1.00
10443;DHT22;5269;51.146;16.986;2022-09-03T20:47:00;14.10;99.90
10443;DHT22;5269;51.146;16.986;2022-09-03T20:52:52;14.00;1.00
10443;DHT22;5269;51.146;16.986;2022-09-03T20:55:31;14.00;1.00
10443;DHT22;5269;51.146;16.986;2022-09-03T20:58:32;14.10;99.90
10443;DHT22;5269;51.146;16.986;2022-09-03T21:04:50;14.00;1.00
10443;DHT22;5269;51.146;16.986;2022-09-03T21:07:32;14.10;99.90
10443;DHT22;5269;51.146;16.986;2022-09-03T21:10:23;14.00;1.00
10443;DHT22;5269;51.146;16.986;2022-09-03T21:13:04;13.90;93.10
10443;DHT22;5269;51.146;16.986;2022-09-03T21:15:47;13.80;1.00
10443;DHT22;5269;51.146;16.986;2022-09-03T21:18:25;13.70;1.00
10443;DHT22;5269;51.146;16.986;2022-09-03T21:21:10;13.70;1.00
10443;DHT22;5269;51.146;16.986;2022-09-03T21:24:03;13.70;1.00
10443;DHT22;5269;51.146;16.986;2022-09-03T21:26:44;13.70;99.90
10443;DHT22;5269;51.146;16.986;2022-09-03T21:29:33;13.60;65.90
10443;DHT22;5269;51.146;16.986;2022-09-03T21:35:33;13.50;1.00
10443;DHT22;5269;51.146;16.986;2022-09-03T21:38:15;13.50;99.90
10443;DHT22;5269;51.146;16.986;2022-09-03T21:40:56;13.40;99.90
10443;DHT22;5269;51.146;16.986;2022-09-03T21:43:32;13.30;1.00
10443;DHT22;5269;51.146;16.986;2022-09-03T21:46:07;13.20;1.00
10443;DHT22;5269;51.146;16.986;2022-09-03T21:48:47;13.20;1.00
10443;DHT22;5269;51.146;16.986;2022-09-03T21:51:21;13.10;1.00
10443;DHT22;5269;51.146;16.986;2022-09-03T21:57:30;13.10;98.50
10443;DHT22;5269;51.146;16.986;2022-09-03T22:03:40;13.00;99.90
10443;DHT22;5269;51.146;16.986;2022-09-03T22:09:34;13.00;99.90
10443;DHT22;5269;51.146;16.986;2022-09-03T22:15:41;13.00;1.00
10443;DHT22;5269;51.146;16.986;2022-09-03T22:21:33;13.00;1.00
10443;DHT22;5269;51.146;16.986;2022-09-03T22:27:22;13.00;1.00
10443;DHT22;5269;51.146;16.986;2022-09-03T22:30:04;12.90;1.00
10443;DHT22;5269;51.146;16.986;2022-09-03T22:32:51;12.80;1.00
10443;DHT22;5269;51.146;16.986;2022-09-03T22:42:00;12.60;1.00
10443;DHT22;5269;51.146;16.986;2022-09-03T22:44:45;12.50;1.00
10443;DHT22;5269;51.146;16.986;2022-09-03T22:47:26;12.50;9.50
10443;DHT22;5269;51.146;16.986;2022-09-03T22:50:06;12.40;1.00
10443;DHT22;5269;51.146;16.986;2022-09-03T22:52:41;12.40;1.80
10443;DHT22;5269;51.146;16.986;2022-09-03T22:55:20;12.40;3.40
10443;DHT22;5269;51.146;16.986;2022-09-03T22:57:56;12.30;18.80
10443;DHT22;5269;51.146;16.986;2022-09-03T23:00:25;12.30;47.30
10443;DHT22;5269;51.146;16.986;2022-09-03T23:03:15;12.30;86.30
10443;DHT22;5269;51.146;16.986;2022-09-03T23:05:54;12.30;95.80
10443;DHT22;5269;51.146;16.986;2022-09-03T23:08:35;12.30;99.90
10443;DHT22;5269;51.146;16.986;2022-09-03T23:11:20;12.20;99.90